createdAt,value
2023-04-26T00:02:43.816Z,4.45
2023-04-26T00:05:46.834Z,4.85
2023-04-26T00:08:49.436Z,4.72
2023-04-26T00:11:52.114Z,4.35
2023-04-26T00:14:54.841Z,4.93
2023-04-26T00:17:57.306Z,5.32
2023-04-26T00:20:59.826Z,4.80
2023-04-26T00:24:02.284Z,4.95
2023-04-26T00:27:10.278Z,4.60
2023-04-26T00:30:13.368Z,4.47
2023-04-26T00:33:15.952Z,4.65
2023-04-26T00:36:19.630Z,5.32
2023-04-26T00:39:22.583Z,4.93
2023-04-26T00:42:25.009Z,4.90
2023-04-26T00:45:27.513Z,4.65
2023-04-26T00:48:30.558Z,4.30
2023-04-26T00:51:32.950Z,4.47
2023-04-26T00:54:35.508Z,4.72
2023-04-26T00:57:38.056Z,5.22
2023-04-26T01:00:40.558Z,4.80
2023-04-26T01:03:44.730Z,4.97
2023-04-26T01:06:47.459Z,4.88
2023-04-26T01:09:50.700Z,4.60
2023-04-26T01:12:53.052Z,4.95
2023-04-26T01:15:55.846Z,5.70
2023-04-26T01:18:58.439Z,5.20
2023-04-26T01:22:01.103Z,5.40
2023-04-26T01:25:04.731Z,4.63
2023-04-26T01:28:08.777Z,5.43
2023-04-26T01:31:11.183Z,5.25
2023-04-26T01:34:13.894Z,5.15
2023-04-26T01:37:16.545Z,4.63
2023-04-26T01:40:19.155Z,4.93
2023-04-26T01:43:23.114Z,4.57
2023-04-26T01:46:25.968Z,4.88
2023-04-26T01:49:28.460Z,5.10
2023-04-26T01:52:30.824Z,4.72
2023-04-26T01:55:34.246Z,5.07
2023-04-26T01:58:36.650Z,4.93
2023-04-26T02:01:41.196Z,4.95
2023-04-26T02:04:46.176Z,4.97
2023-04-26T02:07:48.775Z,4.57
2023-04-26T02:10:51.142Z,4.75
2023-04-26T02:13:54.660Z,4.57
2023-04-26T02:16:57.236Z,4.97
2023-04-26T02:19:59.787Z,4.90
2023-04-26T02:23:02.171Z,4.50
2023-04-26T02:26:05.042Z,4.82
2023-04-26T02:29:07.591Z,5.18
2023-04-26T02:32:10.080Z,5.30
2023-04-26T02:35:12.540Z,3.88
2023-04-26T02:38:15.646Z,4.43
2023-04-26T02:47:23.640Z,4.18
2023-04-26T02:50:26.277Z,4.30
2023-04-26T02:53:28.921Z,4.07
2023-04-26T02:56:31.542Z,4.57
2023-04-26T02:59:34.049Z,4.97
2023-04-26T03:02:37.566Z,3.75
2023-04-26T03:05:40.468Z,4.38
2023-04-26T03:08:43.153Z,4.43
2023-04-26T03:11:46.467Z,3.85
2023-04-26T03:14:50.254Z,4.10
2023-04-26T03:17:53.448Z,4.15
2023-04-26T03:20:57.212Z,4.50
2023-04-26T03:24:00.072Z,4.60
2023-04-26T03:27:02.699Z,4.25
2023-04-26T03:30:05.971Z,3.75
2023-04-26T03:33:10.303Z,3.92
2023-04-26T03:36:12.991Z,4.30
2023-04-26T03:39:16.990Z,3.80
2023-04-26T03:42:22.785Z,3.78
2023-04-26T03:45:26.922Z,3.95
2023-04-26T03:48:29.335Z,3.70
2023-04-26T03:51:31.767Z,3.80
2023-04-26T03:54:37.296Z,3.80
2023-04-26T03:57:39.756Z,3.60
2023-04-26T04:00:45.031Z,3.83
2023-04-26T04:03:47.917Z,4.43
2023-04-26T04:06:51.346Z,3.67
2023-04-26T04:09:54.100Z,3.67
2023-04-26T04:12:56.751Z,4.03
2023-04-26T04:15:59.250Z,4.30
2023-04-26T04:19:01.888Z,3.90
2023-04-26T04:22:04.759Z,3.63
2023-04-26T04:25:10.575Z,3.78
2023-04-26T04:28:14.821Z,3.72
2023-04-26T04:31:17.750Z,3.85
2023-04-26T04:34:20.605Z,3.25
2023-04-26T04:37:25.909Z,3.97
2023-04-26T04:40:28.362Z,4.10
2023-04-26T04:43:32.014Z,4.15
2023-04-26T04:46:34.694Z,3.80
2023-04-26T04:49:37.634Z,3.67
2023-04-26T04:52:40.277Z,4.13
2023-04-26T04:55:42.726Z,3.80
2023-04-26T04:58:47.860Z,3.47
2023-04-26T05:01:51.752Z,3.60
2023-04-26T05:04:55.454Z,3.70
2023-04-26T05:07:57.994Z,3.60
2023-04-26T05:11:00.688Z,3.83
2023-04-26T05:14:03.373Z,3.88
2023-04-26T05:20:09.508Z,4.05
2023-04-26T05:23:12.162Z,4.45
2023-04-26T05:26:15.889Z,4.57
2023-04-26T05:29:31.499Z,3.60
2023-04-26T05:32:42.843Z,3.95
2023-04-26T05:36:11.738Z,3.83
2023-04-26T05:39:14.368Z,3.70
2023-04-26T05:42:17.994Z,4.43
2023-04-26T05:45:21.163Z,4.50
2023-04-26T05:48:25.624Z,4.05
2023-04-26T05:51:28.231Z,4.15
2023-04-26T05:54:30.790Z,4.45
2023-04-26T05:57:34.819Z,4.35
2023-04-26T06:00:37.673Z,3.90
2023-04-26T06:03:40.244Z,4.18
2023-04-26T06:06:43.089Z,4.07
2023-04-26T06:09:45.879Z,4.00
2023-04-26T06:12:48.500Z,4.28
2023-04-26T06:15:53.697Z,3.72
2023-04-26T06:18:57.023Z,3.50
2023-04-26T06:21:59.616Z,3.67
2023-04-26T06:25:02.568Z,3.80
2023-04-26T06:28:05.155Z,3.25
2023-04-26T06:31:07.878Z,3.38
2023-04-26T06:34:12.210Z,3.67
2023-04-26T06:37:14.964Z,3.50
2023-04-26T06:40:18.831Z,3.15
2023-04-26T06:43:21.495Z,3.25
2023-04-26T06:46:33.365Z,2.75
2023-04-26T06:49:37.999Z,3.92
2023-04-26T06:52:42.784Z,3.30
2023-04-26T06:55:46.192Z,3.35
2023-04-26T06:59:05.521Z,3.35
2023-04-26T07:02:08.251Z,3.65
2023-04-26T07:05:11.017Z,3.40
2023-04-26T07:08:13.467Z,3.25
2023-04-26T07:11:16.395Z,3.50
2023-04-26T07:14:19.160Z,2.83
2023-04-26T07:17:22.315Z,2.70
2023-04-26T07:26:29.913Z,3.40
2023-04-26T07:29:32.301Z,3.35
2023-04-26T07:32:35.248Z,3.55
2023-04-26T07:35:37.806Z,3.20
2023-04-26T07:38:40.303Z,3.20
2023-04-26T07:41:44.095Z,3.08
2023-04-26T07:44:48.494Z,2.85
2023-04-26T07:47:50.956Z,3.70
2023-04-26T07:50:53.427Z,2.85
2023-04-26T07:53:56.062Z,3.05
2023-04-26T07:56:58.523Z,2.78
2023-04-26T08:00:01.257Z,3.33
2023-04-26T08:03:04.029Z,2.70
2023-04-26T08:06:08.882Z,2.90
2023-04-26T08:09:11.570Z,2.45
2023-04-26T08:12:14.147Z,2.78
2023-04-26T08:15:16.812Z,3.20
2023-04-26T08:18:19.488Z,2.80
2023-04-26T08:21:22.032Z,2.70
2023-04-26T08:24:24.464Z,2.70
2023-04-26T08:27:28.378Z,2.92
2023-04-26T08:30:30.914Z,2.67
2023-04-26T08:33:33.446Z,2.70
2023-04-26T08:36:39.653Z,2.78
2023-04-26T08:39:42.169Z,2.53
2023-04-26T08:42:44.857Z,2.25
2023-04-26T08:45:47.561Z,2.67
2023-04-26T08:48:55.280Z,2.80
2023-04-26T08:51:57.974Z,3.28
2023-04-26T08:55:00.967Z,3.13
2023-04-26T08:58:03.492Z,2.92
2023-04-26T09:01:06.004Z,2.80
2023-04-26T09:04:08.656Z,3.30
2023-04-26T09:07:11.351Z,3.38
2023-04-26T09:10:14.741Z,3.20
2023-04-26T09:13:17.398Z,2.40
2023-04-26T09:16:20.205Z,2.75
2023-04-26T09:19:52.127Z,3.17
2023-04-26T09:23:06.049Z,2.83
2023-04-26T09:26:19.075Z,2.50
2023-04-26T09:29:21.834Z,2.88
2023-04-26T09:32:24.997Z,2.50
2023-04-26T09:35:29.667Z,3.13
2023-04-26T09:38:32.241Z,2.83
2023-04-26T09:41:47.002Z,2.63
2023-04-26T09:44:49.388Z,2.25
2023-04-26T09:47:51.976Z,2.95
2023-04-26T09:50:59.063Z,2.65
2023-04-26T09:54:01.520Z,2.63
2023-04-26T09:57:04.146Z,2.33
2023-04-26T10:00:10.360Z,2.53
2023-04-26T10:03:12.977Z,2.60
2023-04-26T10:06:16.155Z,2.65
2023-04-26T10:09:18.757Z,2.50
2023-04-26T10:12:21.621Z,2.30
2023-04-26T10:15:24.392Z,2.35
2023-04-26T10:18:27.034Z,2.10
2023-04-26T10:21:32.041Z,2.17
2023-04-26T10:24:37.691Z,1.92
2023-04-26T10:27:46.922Z,2.20
2023-04-26T10:34:22.909Z,2.40
2023-04-26T10:37:25.403Z,2.50
2023-04-26T10:40:34.514Z,2.33
2023-04-26T10:43:42.857Z,2.42
2023-04-26T10:46:49.416Z,2.30
2023-04-26T10:49:51.978Z,2.13
2023-04-26T10:53:02.621Z,2.00
2023-04-26T10:56:05.184Z,2.30
2023-04-26T11:02:58.729Z,2.30
2023-04-26T11:06:01.720Z,2.20
2023-04-26T11:09:04.394Z,2.47
2023-04-26T11:12:13.900Z,2.30
2023-04-26T11:15:16.494Z,2.33
2023-04-26T11:18:20.124Z,1.77
2023-04-26T11:21:22.716Z,2.20
2023-04-26T11:27:28.411Z,2.08
2023-04-26T11:30:31.998Z,2.15
2023-04-26T11:33:34.562Z,2.20
2023-04-26T11:36:38.565Z,2.10
2023-04-26T11:39:41.005Z,2.33
2023-04-26T11:42:46.455Z,2.15
2023-04-26T11:45:49.219Z,2.55
2023-04-26T11:48:51.903Z,2.42
2023-04-26T11:55:04.848Z,2.42
2023-04-26T11:58:14.218Z,2.10
2023-04-26T12:01:26.701Z,2.17
2023-04-26T12:04:30.711Z,2.38
2023-04-26T12:07:37.706Z,1.92
2023-04-26T12:10:40.307Z,2.30
2023-04-26T12:13:42.935Z,2.20
2023-04-26T12:16:46.490Z,2.20
2023-04-26T12:19:49.857Z,2.05
2023-04-26T12:23:07.988Z,1.73
2023-04-26T12:26:12.275Z,2.15
2023-04-26T12:29:14.727Z,2.20
2023-04-26T12:32:17.279Z,1.80
2023-04-26T12:35:19.723Z,2.28
2023-04-26T12:38:22.238Z,2.08
2023-04-26T12:41:24.867Z,1.90
2023-04-26T12:44:27.356Z,2.00
2023-04-26T12:47:31.552Z,1.92
2023-04-26T12:50:34.148Z,2.00
2023-04-26T12:53:36.828Z,2.00
2023-04-26T12:56:43.873Z,2.00
2023-04-26T12:59:46.651Z,1.70
2023-04-26T13:02:49.276Z,1.70
2023-04-26T13:05:52.466Z,1.80
2023-04-26T13:08:54.896Z,2.00
2023-04-26T13:11:57.794Z,1.83
2023-04-26T13:15:01.891Z,1.70
2023-04-26T13:18:04.584Z,2.10
2023-04-26T13:21:07.165Z,1.70
2023-04-26T13:24:09.514Z,1.90
2023-04-26T13:27:12.040Z,2.22
2023-04-26T13:30:14.653Z,1.85
2023-04-26T13:33:17.312Z,1.90
2023-04-26T13:37:04.502Z,1.80
2023-04-26T13:40:25.442Z,2.00
2023-04-26T13:43:27.865Z,1.75
2023-04-26T13:46:30.746Z,2.47
2023-04-26T13:49:33.284Z,2.63
2023-04-26T13:52:37.838Z,2.85
2023-04-26T13:55:41.338Z,1.83
2023-04-26T13:58:47.535Z,2.20
2023-04-26T14:01:54.211Z,2.03
2023-04-26T14:04:58.110Z,2.10
2023-04-26T14:11:07.704Z,2.05
2023-04-26T14:14:10.243Z,1.80
2023-04-26T14:17:12.898Z,1.90
2023-04-26T14:20:15.741Z,2.00
2023-04-26T14:23:18.871Z,1.70
2023-04-26T14:26:21.831Z,2.13
2023-04-26T14:29:24.501Z,1.88
2023-04-26T14:32:27.065Z,2.17
2023-04-26T14:35:29.712Z,1.98
2023-04-26T14:38:32.485Z,1.70
2023-04-26T14:41:35.396Z,1.95
2023-04-26T14:47:40.759Z,2.03
2023-04-26T14:50:44.460Z,1.77
2023-04-26T14:53:47.208Z,1.75
2023-04-26T14:56:49.738Z,1.85
2023-04-26T14:59:52.166Z,2.00
2023-04-26T15:02:54.843Z,2.28
2023-04-26T15:05:57.625Z,2.25
2023-04-26T15:09:00.384Z,2.08
2023-04-26T15:12:04.866Z,2.42
2023-04-26T15:15:07.961Z,2.10
2023-04-26T15:21:17.434Z,1.98
2023-04-26T15:24:20.575Z,2.78
2023-04-26T15:30:27.568Z,1.90
2023-04-26T15:33:30.722Z,1.67
2023-04-26T15:36:33.238Z,1.55
2023-04-26T15:39:35.896Z,2.25
2023-04-26T15:42:38.585Z,1.90
2023-04-26T15:45:41.008Z,2.40
2023-04-26T15:48:44.483Z,2.17
2023-04-26T15:51:47.846Z,2.10
2023-04-26T15:54:50.452Z,2.03
2023-04-26T15:57:52.904Z,2.00
2023-04-26T16:00:55.658Z,1.80
2023-04-26T16:03:58.623Z,2.00
2023-04-26T16:07:01.553Z,1.90
2023-04-26T16:10:05.150Z,2.17
2023-04-26T16:13:07.920Z,2.00
2023-04-26T16:16:11.726Z,1.92
2023-04-26T16:19:14.413Z,1.58
2023-04-26T16:22:20.379Z,1.90
2023-04-26T16:25:23.046Z,2.00
2023-04-26T16:28:25.663Z,2.50
2023-04-26T16:31:28.286Z,2.00
2023-04-26T16:34:30.852Z,1.73
2023-04-26T16:37:33.442Z,2.15
2023-04-26T16:40:36.001Z,2.30
2023-04-26T16:43:38.867Z,2.10
2023-04-26T16:46:41.423Z,2.30
2023-04-26T16:49:44.205Z,1.70
2023-04-26T16:52:47.034Z,1.77
2023-04-26T16:55:50.452Z,1.80
2023-04-26T16:58:53.454Z,1.77
2023-04-26T17:01:56.598Z,1.88
2023-04-26T17:04:59.875Z,1.83
2023-04-26T17:11:05.524Z,1.65
2023-04-26T17:14:07.992Z,1.70
2023-04-26T17:17:10.457Z,2.97
2023-04-26T17:20:13.721Z,1.80
2023-04-26T17:23:17.378Z,1.90
2023-04-26T17:26:19.899Z,1.70
2023-04-26T17:29:22.728Z,2.30
2023-04-26T17:32:25.227Z,1.70
2023-04-26T17:35:27.778Z,1.90
2023-04-26T17:39:04.492Z,1.60
2023-04-26T17:42:06.849Z,2.00
2023-04-26T17:45:12.076Z,1.90
2023-04-26T17:48:17.148Z,2.10
2023-04-26T17:51:19.725Z,1.90
2023-04-26T17:54:24.013Z,1.83
2023-04-26T17:57:30.149Z,2.00
2023-04-26T18:00:33.070Z,1.95
2023-04-26T18:03:36.095Z,1.67
2023-04-26T18:06:40.002Z,1.70
2023-04-26T18:09:42.649Z,1.90
2023-04-26T18:12:45.146Z,1.88
2023-04-26T18:15:47.988Z,2.03
2023-04-26T18:18:50.540Z,1.98
2023-04-26T18:21:54.047Z,1.92
2023-04-26T18:24:56.815Z,2.03
2023-04-26T18:27:59.239Z,1.92
2023-04-26T18:31:01.894Z,2.05
2023-04-26T18:34:04.415Z,1.80
2023-04-26T18:37:07.116Z,1.92
2023-04-26T18:40:10.355Z,1.67
2023-04-26T18:43:12.871Z,2.00
2023-04-26T18:46:15.505Z,1.88
2023-04-26T18:49:17.941Z,1.90
2023-04-26T18:52:20.395Z,1.65
2023-04-26T18:55:23.080Z,1.90
2023-04-26T18:58:25.674Z,1.90
2023-04-26T19:01:28.347Z,1.80
2023-04-26T19:04:31.065Z,2.10
2023-04-26T19:07:33.688Z,1.95
2023-04-26T19:10:36.300Z,1.95
2023-04-26T19:13:42.917Z,2.05
2023-04-26T19:16:45.381Z,2.20
2023-04-26T19:19:47.860Z,2.03
2023-04-26T19:22:50.468Z,2.20
2023-04-26T19:25:53.267Z,2.30
2023-04-26T19:28:56.010Z,2.15
2023-04-26T19:32:00.194Z,2.28
2023-04-26T19:35:06.124Z,2.10
2023-04-26T19:38:10.127Z,2.00
2023-04-26T19:41:13.264Z,2.13
2023-04-26T19:44:15.977Z,2.20
2023-04-26T19:47:18.767Z,2.20
2023-04-26T19:50:21.238Z,2.10
2023-04-26T19:53:23.755Z,2.63
2023-04-26T19:56:26.398Z,2.45
2023-04-26T19:59:28.872Z,2.08
2023-04-26T20:02:31.762Z,2.03
2023-04-26T20:05:34.783Z,2.25
2023-04-26T20:08:37.736Z,2.38
2023-04-26T20:11:40.358Z,2.10
2023-04-26T20:14:43.430Z,2.35
2023-04-26T20:17:46.085Z,2.15
2023-04-26T20:20:49.346Z,2.03
2023-04-26T20:23:52.477Z,2.05
2023-04-26T20:26:56.640Z,2.65
2023-04-26T20:29:59.173Z,2.60
2023-04-26T20:33:02.134Z,2.70
2023-04-26T20:36:05.318Z,3.03
2023-04-26T20:39:09.974Z,2.70
2023-04-26T20:42:12.773Z,2.60
2023-04-26T20:45:16.690Z,3.40
2023-04-26T20:48:19.283Z,3.10
2023-04-26T20:51:21.797Z,3.38
2023-04-26T20:54:25.315Z,3.28
2023-04-26T20:57:28.201Z,3.83
2023-04-26T21:00:30.704Z,4.05
2023-04-26T21:03:34.584Z,5.15
2023-04-26T21:06:37.719Z,5.05
2023-04-26T21:09:40.415Z,4.95
2023-04-26T21:12:42.922Z,5.35
2023-04-26T21:15:45.994Z,3.97
2023-04-26T21:18:48.929Z,5.05
2023-04-26T21:21:51.476Z,5.30
2023-04-26T21:24:54.039Z,3.65
2023-04-26T21:27:58.254Z,4.38
2023-04-26T21:31:04.902Z,3.22
2023-04-26T21:34:07.516Z,3.20
2023-04-26T21:37:10.657Z,3.40
2023-04-26T21:40:13.529Z,3.40
2023-04-26T21:43:17.642Z,3.28
2023-04-26T21:46:20.235Z,2.88
2023-04-26T21:49:22.807Z,3.33
2023-04-26T21:52:25.443Z,3.00
2023-04-26T21:55:27.798Z,2.85
2023-04-26T21:58:30.362Z,3.15
2023-04-26T22:01:32.980Z,2.92
2023-04-26T22:04:36.100Z,3.53
2023-04-26T22:07:38.491Z,2.90
2023-04-26T22:10:40.912Z,2.67
2023-04-26T22:13:43.366Z,3.10
2023-04-26T22:16:46.057Z,2.80
2023-04-26T22:19:48.841Z,2.92
2023-04-26T22:22:51.251Z,3.15
2023-04-26T22:25:53.929Z,2.83
2023-04-26T22:28:56.359Z,3.47
2023-04-26T22:31:59.160Z,3.00
2023-04-26T22:35:01.641Z,2.95
2023-04-26T22:38:04.093Z,3.40
2023-04-26T22:41:07.396Z,3.42
2023-04-26T22:47:12.200Z,3.08
2023-04-26T22:50:14.997Z,3.40
2023-04-26T22:53:17.420Z,3.20
2023-04-26T22:56:19.899Z,3.10
2023-04-26T22:59:22.346Z,3.33
2023-04-26T23:02:25.068Z,3.22
2023-04-26T23:05:27.912Z,3.25
2023-04-26T23:08:30.361Z,3.35
2023-04-26T23:11:33.414Z,3.63
2023-04-26T23:14:36.079Z,3.33
2023-04-26T23:17:38.950Z,3.70
2023-04-26T23:20:41.533Z,3.17
2023-04-26T23:23:44.234Z,3.38
2023-04-26T23:26:46.887Z,3.15
2023-04-26T23:29:50.051Z,3.65
2023-04-26T23:32:52.705Z,3.10
2023-04-26T23:35:55.379Z,3.63
2023-04-26T23:38:58.140Z,3.05
2023-04-26T23:42:00.816Z,3.38
2023-04-26T23:45:04.442Z,3.67
2023-04-26T23:48:08.466Z,3.58
2023-04-26T23:51:11.019Z,3.20
2023-04-26T23:54:13.611Z,3.58
2023-04-26T23:57:16.531Z,3.58
